Time;durP1;ratioP1;P1;durP2;ratioP2;P2;SDS_P1;SDS_P2;PMS_P1;PMS_P2;Temp;Humidity;BMP_temperature;BMP_pressure;BME280_temperature;BME280_humidity;BME280_pressure;Samples;Min_cycle;Max_cycle;Signal;HPM_P1;HPM_P2
2024/01/29 00:01:46;;;;;;;42.00;27.30;;;;;;;-1.30;100.00;101466.65;433121;1258;140125;-55
2024/01/29 00:11:50;;;;;;;;;;;;;;;-1.33;100.00;101464.18;433629;1260;141298;-56
2024/01/29 00:21:56;;;;;;;;;;;;;;;-1.38;100.00;101467.02;433459;1259;126427;-55
2024/01/29 00:32:00;;;;;;;;;;;;;;;-1.38;100.00;101457.08;433680;1260;126021;-56
2024/01/29 00:42:05;;;;;;;;;;;;;;;-1.42;100.00;101446.36;433080;1258;126930;-55
2024/01/29 00:52:10;;;;;;;;;;;;;;;-1.51;100.00;101450.36;435808;1259;126436;-54
2024/01/29 01:02:14;;;;;;;;;;;;;;;-1.61;100.00;101451.05;433132;1258;127715;-55
2024/01/29 01:12:19;;;;;;;;;;;;;;;-1.69;100.00;101452.28;433274;1258;126785;-57
2024/01/29 01:22:23;;;;;;;;;;;;;;;-1.77;100.00;101454.04;433313;1259;126498;-55
2024/01/29 01:32:28;;;;;;;;;;;;;;;-1.83;100.00;101446.39;438984;1257;127918;-55
2024/01/29 01:42:32;;;;;;;;;;;;;;;-1.84;100.00;101448.27;433171;1258;127396;-57
2024/01/29 01:52:36;;;;;;;;;;;;;;;-1.87;100.00;101455.44;433124;1260;125993;-57
2024/01/29 02:02:41;;;;;;;;;;;;;;;-1.94;100.00;101454.09;433538;1257;125953;-58
2024/01/29 02:12:46;;;;;;;;;;;;;;;-1.97;100.00;101452.16;433365;1258;126421;-55
2024/01/29 02:22:50;;;;;;;;;;;;;;;-1.99;100.00;101450.76;433343;1258;126428;-54
2024/01/29 02:32:54;;;;;;;;;;;;;;;-2.01;100.00;101447.29;434807;1257;192438;-56
2024/01/29 02:42:59;;;;;;;;;;;;;;;-2.03;100.00;101448.79;433495;1260;127810;-55
2024/01/29 02:53:04;;;;;;;;;;;;;;;-2.06;100.00;101442.39;433270;1260;127469;-56
2024/01/29 03:03:08;;;;;;;;;;;;;;;-2.11;100.00;101436.98;435854;1258;126616;-55
2024/01/29 03:13:13;;;;;;;;;;;;;;;-2.15;100.00;101430.73;433481;1258;127580;-56
2024/01/29 03:23:17;;;;;;;;;;;;;;;-2.20;100.00;101424.65;433457;1257;127993;-55
2024/01/29 03:33:21;;;;;;;;;;;;;;;-2.26;100.00;101424.70;433569;1260;126342;-61
2024/01/29 03:43:26;;;;;;;;;;;;;;;-2.32;100.00;101418.25;433265;1257;126488;-57
2024/01/29 03:53:30;;;;;;;;;;;;;;;-2.33;100.00;101409.48;433927;1258;127112;-55
2024/01/29 04:03:34;;;;;;;;;;;;;;;-2.38;100.00;101386.73;433531;1257;127374;-54
2024/01/29 04:13:39;;;;;;;;;;;;;;;-2.44;100.00;101375.48;433248;1259;126990;-55
2024/01/29 04:23:43;;;;;;;;;;;;;;;-2.51;100.00;101369.35;433348;1260;127077;-55
2024/01/29 04:33:48;;;;;;;;;;;;;;;-2.60;100.00;101381.02;433552;1260;125970;-56
2024/01/29 04:43:52;;;;;;;;;;;;;;;-2.68;100.00;101388.08;433474;1258;126127;-57
2024/01/29 04:53:56;;;;;;;;;;;;;;;-2.70;100.00;101382.73;433405;1259;126197;-55
2024/01/29 05:04:01;;;;;;;;;;;;;;;-2.72;100.00;101383.52;433555;1257;127168;-55
2024/01/29 05:14:05;;;;;;;;;;;;;;;-2.72;100.00;101375.83;433393;1257;127025;-55
2024/01/29 05:24:09;;;;;;;;;;;;;;;-2.71;100.00;101361.44;433329;1257;126692;-56
2024/01/29 05:34:14;;;;;;;;;;;;;;;-2.68;100.00;101359.27;433468;1257;126286;-55
2024/01/29 05:44:18;;;;;;;;;;;;;;;-2.66;100.00;101365.13;433539;1259;127719;-55
2024/01/29 05:54:23;;;;;;;;;;;;;;;-2.65;100.00;101361.73;433241;1259;126175;-56
2024/01/29 06:04:27;;;;;;;;;;;;;;;-2.62;100.00;101353.89;434335;1257;126479;-56
2024/01/29 06:14:31;;;;;;;;;;;;;;;-2.60;100.00;101343.45;433358;1257;126351;-56
2024/01/29 06:24:36;;;;;;;;;;;;;;;-2.59;100.00;101347.95;433459;1256;127585;-58
2024/01/29 06:34:40;;;;;;;;;;;;;;;-2.52;100.00;101344.97;433380;1260;128472;-54
2024/01/29 06:44:44;;;;;;;;;;;;;;;-2.38;100.00;101345.06;433581;1260;126671;-54
2024/01/29 06:54:49;;;;;;;;;;;;;;;-2.21;100.00;101343.98;432867;1260;127848;-56
2024/01/29 07:04:54;;;;;;;;;;;;;;;-1.99;100.00;101331.11;432833;1260;126568;-62
2024/01/29 07:14:58;;;;;;;;;;;;;;;-1.74;100.00;101322.23;434370;1261;126390;-62
2024/01/29 07:25:02;;;;;;;;;;;;;;;-1.10;100.00;101317.70;433333;1257;127161;-63
2024/01/29 07:35:08;;;;;;;;;;;;;;;1.66;100.00;101304.75;434485;1257;127429;-66
2024/01/29 07:45:12;;;;;;;;;;;;;;;5.18;100.00;101302.42;434149;1256;127316;-63
2024/01/29 07:55:17;;;;;;;;;;;;;;;8.46;100.00;101304.27;432294;1258;126786;-67
2024/01/29 08:05:22;;;;;;;;;;;;;;;11.25;100.00;101302.60;435392;1259;126477;-62
2024/01/29 08:15:29;;;;;;;;;;;;;;;13.87;100.00;101303.19;432923;1260;127393;-67
2024/01/29 08:25:33;;;;;;;;;;;;;;;15.34;100.00;101304.13;433270;1261;126296;-62
2024/01/29 08:35:37;;;;;;;;;;;;;;;16.35;98.16;101313.46;433138;1258;126155;-64
2024/01/29 08:45:42;;;;;;;;;;;;;;;17.24;93.60;101309.59;433662;1259;126844;-69
2024/01/29 08:55:47;;;;;;;;;;;;;;;18.20;89.45;101313.90;434646;1258;125787;-65
2024/01/29 09:05:51;;;;;;;;;;;;;;;19.12;85.65;101311.38;433559;1256;127339;-71
2024/01/29 09:15:56;;;;;;;;;;;;;;;19.82;81.12;101320.13;438915;1260;125732;-66
2024/01/29 09:26:01;;;;;;;;;;;;;;;20.58;78.93;101326.36;435185;1259;125526;-72
2024/01/29 09:36:06;;;;;;;;;;;;;;;22.05;76.54;101319.13;438095;1258;125159;-65
2024/01/29 09:46:13;;;;;;;;;;;;;;;22.44;71.60;101314.08;434429;1261;125618;-64
2024/01/29 09:56:18;;;;;;;;;;;;;;;20.35;68.64;101303.73;436399;1260;126096;-61
2024/01/29 10:06:22;;;;;;;;;;;;;;;14.63;67.60;101311.70;433586;1258;125921;-61
2024/01/29 10:16:27;;;;;;;;;;;;;;;11.11;70.89;101309.46;433262;1261;127140;-60
2024/01/29 10:26:31;;;;;;;;;;;;;;;8.74;73.62;101293.82;432745;1260;125659;-66
2024/01/29 10:36:36;;;;;;;;;;;;;;;7.19;76.73;101285.59;433076;1259;126748;-61
2024/01/29 10:46:41;;;;;;;;;;;;;;;6.16;79.12;101276.04;433066;1257;125907;-60
2024/01/29 10:56:47;;;;;;;;;;;;;;;5.52;81.16;101274.83;436029;1260;125615;-67
2024/01/29 11:06:53;;;;;;;;;;;;;;;5.08;82.79;101276.36;433048;1256;125249;-65
2024/01/29 11:16:58;;;;;;;;;;;;;;;4.87;84.58;101280.96;432944;1260;125530;-61
2024/01/29 11:27:09;;;;;;;;;;;;;;;4.85;85.78;101278.41;433247;1259;125266;-71
2024/01/29 11:37:14;;;;;;;;;;;;;;;4.82;86.46;101274.63;437981;1261;125933;-76
2024/01/29 11:47:21;;;;;;;;;;;;;;;4.78;86.82;101267.73;438017;1261;126251;-74
2024/01/29 11:57:25;;;;;;;;;;;;;;;4.79;87.43;101262.86;438260;1259;125070;-71
2024/01/29 12:07:30;;;;;;;;;;;;;;;4.83;87.61;101244.77;438033;1260;125635;-71
2024/01/29 12:17:36;;;;;;;;;;;;;;;4.89;88.01;101226.46;437182;1259;125461;-59
2024/01/29 12:27:42;;;;;;;;;;;;;;;4.98;88.48;101214.87;432965;1260;125672;-63
2024/01/29 12:37:46;;;;;;;;;;;;;;;5.09;88.65;101204.31;435077;1261;124983;-62
2024/01/29 12:47:51;;;;;;;;;;;;;;;5.13;88.58;101191.73;433019;1261;126383;-63
2024/01/29 12:57:55;;;;;;;;;;;;;;;5.22;88.93;101180.48;433149;1261;124874;-63
2024/01/29 13:08:01;;;;;;;;;;;;;;;5.27;89.02;101180.77;433442;1259;125657;-65
2024/01/29 13:18:06;;;;;;;;;;;;;;;5.30;89.47;101172.55;433084;1261;125908;-64
2024/01/29 13:28:10;;;;;;;;;;;;;;;5.31;90.09;101167.31;433611;1260;127006;-63
2024/01/29 13:38:15;;;;;;;;;;;;;;;5.29;90.55;101168.58;432861;1259;126373;-62
2024/01/29 13:48:19;;;;;;;;;;;;;;;5.29;90.71;101165.44;433422;1261;125362;-68
2024/01/29 13:58:24;;;;;;;;;;;;;;;5.31;90.71;101161.95;433482;1259;127052;-67
2024/01/29 14:08:28;;;;;;;;;;;;;;;5.28;90.82;101160.94;435187;1261;125891;-72
2024/01/29 14:18:41;;;;;;;;;;;;;;;5.22;91.09;101166.60;424621;1294;600253;-71
2024/01/29 14:28:46;;;;;;;;;;;;;;;5.09;91.29;101168.36;433231;1265;565753;-70
2024/01/29 14:38:55;;;;;;;;;;;;;;;4.99;91.33;101166.10;434439;1262;125952;-60
2024/01/29 14:49:00;;;;;;;;;;;;;;;4.81;91.65;101163.59;434114;1265;124338;-63
2024/01/29 14:59:06;;;;;;;;;;;;;;;4.65;92.04;101165.55;436153;1264;124457;-63
2024/01/29 15:09:10;;;;;;;;;;;;;;;4.50;92.54;101152.39;433516;1265;124518;-64
2024/01/29 15:19:15;;;;;;;;;;;;;;;4.26;92.76;101150.10;433883;1264;124618;-63
2024/01/29 15:29:20;;;;;;;;;;;;;;;3.95;93.26;101156.36;432022;1265;124452;-63
2024/01/29 15:39:25;;;;;;;;;;;;;;;3.67;94.13;101159.62;432017;1264;124314;-59
2024/01/29 15:49:30;;;;;;;;;;;;;;;3.45;94.71;101163.64;432049;1264;124918;-59
2024/01/29 15:59:35;;;;;;;;;;;;;;;3.28;95.10;101163.44;439423;1265;125829;-59
2024/01/29 16:09:40;;;;;;;;;;;;;;;3.10;95.75;101172.58;431783;1265;125826;-58
2024/01/29 16:19:44;;;;;;;;;;;;;;;2.86;95.83;101175.85;431815;1266;125962;-58
2024/01/29 16:29:48;;;;;;;;;;;;;;;2.64;96.44;101174.10;431350;1265;125139;-58
2024/01/29 16:39:53;;;;;;;;;;;;;;;2.41;97.25;101174.04;431510;1266;124510;-59
2024/01/29 16:49:57;;;;;;;;;;;;;;;2.24;97.82;101183.61;431569;1266;126348;-59
2024/01/29 17:00:02;;;;;;;;;;;;;;;2.10;98.46;101195.41;431321;1266;125356;-59
2024/01/29 17:10:08;;;;;;;;;;;;;;;1.97;98.68;101193.72;435393;1261;125032;-58
2024/01/29 17:20:14;;;;;;;;;;;;;;;1.92;99.46;101191.48;434494;1264;125635;-59
2024/01/29 17:30:18;;;;;;;;;;;;;;;1.87;99.44;101197.02;433879;1257;126300;-59
2024/01/29 17:40:23;;;;;;;;;;;;;;;1.80;99.76;101195.66;434530;1254;124838;-58
2024/01/29 17:50:27;;;;;;;;;;;;;;;1.65;99.70;101201.73;436909;1256;125997;-58
2024/01/29 18:00:32;;;;;;;;;;;;;;;1.48;99.97;101193.09;434261;1254;125243;-58
2024/01/29 18:10:36;;;;;;;;;;;;;;;1.37;100.00;101191.05;433839;1257;125836;-58
2024/01/29 18:20:40;;;;;;;;;;;;;;;1.25;100.00;101191.02;434136;1253;126189;-58
2024/01/29 18:30:45;;;;;;;;;;;;;;;1.14;100.00;101189.65;435702;1254;126046;-58
2024/01/29 18:40:49;;;;;;;;;;;;;;;1.15;100.00;101189.65;433833;1256;125598;-57
2024/01/29 18:50:54;;;;;;;;;;;;;;;1.22;100.00;101193.63;434081;1254;125267;-59
2024/01/29 19:00:58;;;;;;;;;;;;;;;1.21;100.00;101191.55;434936;1257;126245;-58
2024/01/29 19:11:03;;;;;;;;;;;;;;;1.15;100.00;101185.34;434148;1257;126195;-58
2024/01/29 19:21:07;;;;;;;;;;;;;;;1.05;100.00;101184.81;434609;1257;124770;-59
2024/01/29 19:31:14;;;;;;;;;;;;;;;0.93;100.00;101190.83;435402;1254;125064;-57
2024/01/29 19:41:19;;;;;;;;;;;;;;;0.78;100.00;101184.45;435268;1257;126636;-58
2024/01/29 19:51:24;;;;;;;;;;;;;;;0.70;100.00;101174.75;434489;1257;124940;-58
2024/01/29 20:01:28;;;;;;;;;;;;;;;0.73;100.00;101175.80;434044;1255;126561;-58
2024/01/29 20:11:33;;;;;;;;;;;;;;;0.82;100.00;101169.27;433977;1254;126046;-58
2024/01/29 20:21:41;;;;;;;;;;;;;;;0.85;100.00;101157.89;434600;1255;125098;-58
2024/01/29 20:31:46;;;;;;;;;;;;;;;0.79;100.00;101149.26;434332;1253;126355;-58
2024/01/29 20:41:50;;;;;;;;;;;;;;;0.72;100.00;101138.22;434287;1257;124877;-59
2024/01/29 20:51:55;;;;;;;;;;;;;;;0.62;100.00;101130.80;433851;1257;125690;-58
2024/01/29 21:02:00;;;;;;;;;;;;;;;0.56;100.00;101121.13;434033;1254;125427;-58
2024/01/29 21:12:05;;;;;;;;;;;;;;;0.51;100.00;101109.91;436865;1257;125633;-58
2024/01/29 21:22:10;;;;;;;;;;;;;;;0.48;100.00;101113.70;434029;1257;126920;-58
2024/01/29 21:32:16;;;;;;;;;;;;;;;0.37;100.00;101121.42;434406;1254;125268;-60
2024/01/29 21:42:20;;;;;;;;;;;;;;;0.26;100.00;101120.02;433934;1254;125078;-59
2024/01/29 21:52:25;;;;;;;;;;;;;;;0.17;100.00;101126.36;434236;1252;126100;-58
2024/01/29 22:02:29;;;;;;;;;;;;;;;0.14;100.00;101127.90;434631;1253;126328;-58
2024/01/29 22:12:36;;;;;;;;;;;;;;;0.07;100.00;101127.16;436762;1251;125797;-58
2024/01/29 22:22:42;;;;;;;;;;;;;;;0.04;100.00;101118.38;434187;1252;126531;-59
2024/01/29 22:32:46;;;;;;;;;;;;;;;-0.01;100.00;101127.15;433974;1257;124679;-58
2024/01/29 22:42:51;;;;;;;;;;;;;;;-0.10;100.00;101132.45;434590;1252;127023;-58
2024/01/29 22:52:56;;;;;;;;;;;;;;;-0.18;100.00;101133.44;436542;1254;125055;-58
2024/01/29 23:03:01;;;;;;;;;;;;;;;-0.18;100.00;101129.48;434170;1254;125153;-58
2024/01/29 23:13:05;;;;;;;;;;;;;;;-0.06;100.00;101120.92;434052;1254;125482;-58
2024/01/29 23:23:11;;;;;;;;;;;;;;;-0.02;100.00;101114.91;433903;1257;125821;-58
2024/01/29 23:33:16;;;;;;;;;;;;;;;-0.02;100.00;101109.06;434015;1257;126345;-58
2024/01/29 23:43:20;;;;;;;;;;;;;;;0.01;100.00;101115.80;439016;1252;126601;-58
2024/01/29 23:53:24;;;;;;;;;;;;;;;0.00;100.00;101115.11;435788;1252;125950;-57
